APL Coral — WDF6832 — position and weather

sailwx.info

Track history (hours):
 
Tides and Currents Weather Stations Pressure Air Temp Water Temp Dewpoint Dewpoint Depression Visibility Wind Speed Wind Dir Waves Ship Positions

APL Coral

Owner: APL Maritime Ltd., Bethesda, MD. More information available from US FCC via Universal Licensing System and Coast Guard Vessel Documentation Center.

Last reported at 2017-Jan-22 07:04 UTC. Time now 2017-Jan-23 12:29 UTC.
Position N 01°13' E 103°40'.

Length 274 m; draft 12.4 m.

Type: Cargo ship. MMSI: 367478280.

Date/timePositionNaut miles runAvg speedWind from/ knotsBaromVisibWave heightAir tempDewpointWater temp
2017-Jan-22 07:04N 01°13' E 103°40'611.5
2017-Jan-22 06:32N 01°16' E 103°45'2 2.2
2017-Jan-22 05:33N 01°15' E 103°47'0 0.0
2017-Jan-22 04:33N 01°15' E 103°47'0 0.0
2017-Jan-22 03:27N 01°15' E 103°47'0 0.0
2017-Jan-22 02:33N 01°15' E 103°47'0 0.0
2017-Jan-22 01:33N 01°15' E 103°47'0 0.0
2017-Jan-22 00:33N 01°15' E 103°47'0 0.0
2017-Jan-21 23:33N 01°15' E 103°47'0 0.0
2017-Jan-21 22:27N 01°15' E 103°47'0 0.0
2017-Jan-21 21:27N 01°15' E 103°47'0 0.0
2017-Jan-21 20:30N 01°15' E 103°47'0 0.0
2017-Jan-21 19:33N 01°15' E 103°47'0 0.0
2017-Jan-21 18:33N 01°15' E 103°47'0 0.0
2017-Jan-21 17:27N 01°15' E 103°47'0 0.0
2017-Jan-21 16:33N 01°15' E 103°47'0 0.0
2017-Jan-21 15:33N 01°15' E 103°47'0 0.2
2017-Jan-21 14:34N 01°15' E 103°47'3 3.0
2017-Jan-21 13:34N 01°13' E 103°48'7 6.9
2017-Jan-21 12:34N 01°14' E 103°55'  
2017-Jan-12 20:12N 31°04' E 122°33'913.7
2017-Jan-12 19:33N 31°06' E 122°23'1414.4
2017-Jan-12 18:33N 31°12' E 122°08'1313.3
2017-Jan-12 17:33N 31°16' E 121°53'1110.7
2017-Jan-12 16:33N 31°20' E 121°41'7 6.3
2017-Jan-12 15:32N 31°23' E 121°34'0 0.0
2017-Jan-12 14:32N 31°23' E 121°34'0 0.0
2017-Jan-12 13:32N 31°23' E 121°34'0 0.0
2017-Jan-12 12:29N 31°23' E 121°34'0 0.0
2017-Jan-12 11:32N 31°23' E 121°34'0 0.0
2017-Jan-12 10:32N 31°23' E 121°34'0 0.0
2017-Jan-12 09:32N 31°23' E 121°34'0 0.0
2017-Jan-12 08:32N 31°23' E 121°34'0 0.0
2017-Jan-12 07:32N 31°23' E 121°34'  
Track history (hours):
 
Tides and Currents Weather Stations Pressure Air Temp Water Temp Dewpoint Dewpoint Depression Visibility Wind Speed Wind Dir Waves Ship Positions

APL Coral

Owner: APL Maritime Ltd., Bethesda, MD. More information available from US FCC via Universal Licensing System and Coast Guard Vessel Documentation Center.

Last reported at 2017-Jan-22 07:04 UTC. Time now 2017-Jan-23 12:29 UTC.
Position N 01°13' E 103°40'.

Length 274 m; draft 12.4 m.

Type: Cargo ship. MMSI: 367478280.

Date/timePositionNaut miles runAvg speedWind from/ knotsBaromVisibWave heightAir tempDewpointWater temp
2017-Jan-22 07:04N 01°13' E 103°40'611.5
2017-Jan-22 06:32N 01°16' E 103°45'2 2.2
2017-Jan-22 05:33N 01°15' E 103°47'0 0.0
2017-Jan-22 04:33N 01°15' E 103°47'0 0.0
2017-Jan-22 03:27N 01°15' E 103°47'0 0.0
2017-Jan-22 02:33N 01°15' E 103°47'0 0.0
2017-Jan-22 01:33N 01°15' E 103°47'0 0.0
2017-Jan-22 00:33N 01°15' E 103°47'0 0.0
2017-Jan-21 23:33N 01°15' E 103°47'0 0.0
2017-Jan-21 22:27N 01°15' E 103°47'0 0.0
2017-Jan-21 21:27N 01°15' E 103°47'0 0.0
2017-Jan-21 20:30N 01°15' E 103°47'0 0.0
2017-Jan-21 19:33N 01°15' E 103°47'0 0.0
2017-Jan-21 18:33N 01°15' E 103°47'0 0.0
2017-Jan-21 17:27N 01°15' E 103°47'0 0.0
2017-Jan-21 16:33N 01°15' E 103°47'0 0.0
2017-Jan-21 15:33N 01°15' E 103°47'0 0.2
2017-Jan-21 14:34N 01°15' E 103°47'3 3.0
2017-Jan-21 13:34N 01°13' E 103°48'7 6.9
2017-Jan-21 12:34N 01°14' E 103°55'  
2017-Jan-12 20:12N 31°04' E 122°33'913.7
2017-Jan-12 19:33N 31°06' E 122°23'1414.4
2017-Jan-12 18:33N 31°12' E 122°08'1313.3
2017-Jan-12 17:33N 31°16' E 121°53'1110.7
2017-Jan-12 16:33N 31°20' E 121°41'7 6.3
2017-Jan-12 15:32N 31°23' E 121°34'0 0.0
2017-Jan-12 14:32N 31°23' E 121°34'0 0.0
2017-Jan-12 13:32N 31°23' E 121°34'0 0.0
2017-Jan-12 12:29N 31°23' E 121°34'0 0.0
2017-Jan-12 11:32N 31°23' E 121°34'0 0.0
2017-Jan-12 10:32N 31°23' E 121°34'0 0.0
2017-Jan-12 09:32N 31°23' E 121°34'0 0.0
2017-Jan-12 08:32N 31°23' E 121°34'0 0.0
2017-Jan-12 07:32N 31°23' E 121°34'  

Dump ship's entire track history